createdAt,value
2018-06-24T00:00:06.964Z,97647.80
2018-06-24T00:02:36.597Z,97646.42
2018-06-24T00:05:05.815Z,97645.59
2018-06-24T00:07:35.582Z,97639.05
2018-06-24T00:10:04.872Z,97639.94
2018-06-24T00:12:34.120Z,97635.90
2018-06-24T00:15:03.471Z,97632.58
2018-06-24T00:17:33.059Z,97625.98
2018-06-24T00:20:03.043Z,97621.83
2018-06-24T00:22:32.223Z,97626.84
2018-06-24T00:25:01.620Z,97624.81
2018-06-24T00:27:30.787Z,97621.83
2018-06-24T00:30:00.182Z,97617.69
2018-06-24T00:32:29.338Z,97611.87
2018-06-24T00:34:58.529Z,97605.64
2018-06-24T00:37:27.674Z,97602.70
2018-06-24T00:39:56.886Z,97597.66
2018-06-24T00:42:27.219Z,97596.79
2018-06-24T00:44:56.430Z,97589.28
2018-06-24T00:47:25.631Z,97591.22
2018-06-24T00:49:54.822Z,97594.73
2018-06-24T00:52:23.982Z,97588.48
2018-06-24T00:54:53.634Z,97588.34
2018-06-24T00:57:22.813Z,97590.72
2018-06-24T01:00:03.391Z,97591.09
2018-06-24T01:02:32.551Z,97591.30
2018-06-24T01:05:01.912Z,97591.59
2018-06-24T01:07:31.075Z,97587.42
2018-06-24T01:10:00.266Z,97581.34
2018-06-24T01:12:29.504Z,97584.37
2018-06-24T01:14:59.143Z,97591.66
2018-06-24T01:17:28.354Z,97586.19
2018-06-24T01:19:58.819Z,97581.87
2018-06-24T01:22:28.494Z,97588.98
2018-06-24T01:24:58.406Z,97583.16
2018-06-24T01:27:27.805Z,97580.73
2018-06-24T01:29:56.995Z,97578.02
2018-06-24T01:32:26.150Z,97577.52
2018-06-24T01:34:55.468Z,97573.10
2018-06-24T01:37:24.640Z,97569.55
2018-06-24T01:39:53.838Z,97569.81
2018-06-24T01:42:23.010Z,97566.83
2018-06-24T01:44:52.423Z,97561.52
2018-06-24T01:47:22.095Z,97557.98
2018-06-24T01:49:51.306Z,97556.46
2018-06-24T01:52:20.498Z,97549.17
2018-06-24T01:54:49.691Z,97548.16
2018-06-24T01:57:18.884Z,97542.36
2018-06-24T01:59:48.051Z,97539.61
2018-06-24T02:02:17.274Z,97538.23
2018-06-24T02:04:46.678Z,97539.75
2018-06-24T02:07:15.970Z,97537.08
2018-06-24T02:09:45.955Z,97537.48
2018-06-24T02:12:15.658Z,97536.66
2018-06-24T02:14:44.815Z,97531.82
2018-06-24T02:17:14.020Z,97533.35
2018-06-24T02:19:43.185Z,97530.45
2018-06-24T02:22:12.385Z,97531.53
2018-06-24T02:24:41.572Z,97524.13
2018-06-24T02:27:10.815Z,97525.88
2018-06-24T02:29:40.369Z,97522.75
2018-06-24T02:32:09.990Z,97518.44
2018-06-24T02:34:39.175Z,97518.14
2018-06-24T02:37:08.784Z,97512.22
2018-06-24T02:39:38.191Z,97513.56
2018-06-24T02:42:07.527Z,97511.75
2018-06-24T02:44:36.699Z,97513.42
2018-06-24T02:47:06.071Z,97502.45
2018-06-24T02:49:35.281Z,97504.34
2018-06-24T02:52:04.584Z,97504.19
2018-06-24T02:54:33.758Z,97506.98
2018-06-24T02:57:03.027Z,97502.55
2018-06-24T02:59:32.212Z,97502.98
2018-06-24T03:02:01.414Z,97503.50
2018-06-24T03:04:30.610Z,97501.48
2018-06-24T03:06:59.923Z,97496.22
2018-06-24T03:09:29.090Z,97494.63
2018-06-24T03:11:58.542Z,97492.95
2018-06-24T03:14:27.707Z,97499.88
2018-06-24T03:16:57.431Z,97495.54
2018-06-24T03:19:26.614Z,97492.14
2018-06-24T03:21:56.030Z,97498.22
2018-06-24T03:24:25.305Z,97500.17
2018-06-24T03:26:54.510Z,97498.58
2018-06-24T03:29:23.817Z,97501.48
2018-06-24T03:31:53.831Z,97493.20
2018-06-24T03:34:23.759Z,97499.03
2018-06-24T03:36:52.955Z,97495.98
2018-06-24T03:39:22.154Z,97491.85
2018-06-24T03:41:51.379Z,97488.49
2018-06-24T03:44:20.571Z,97486.95
2018-06-24T03:46:50.044Z,97493.11
2018-06-24T03:49:19.266Z,97501.28
2018-06-24T03:51:48.453Z,97497.57
2018-06-24T03:54:18.166Z,97491.34
2018-06-24T03:56:47.358Z,97490.44
2018-06-24T03:59:16.559Z,97493.75
2018-06-24T04:01:46.308Z,97490.92
2018-06-24T04:04:15.619Z,97487.05
2018-06-24T04:06:44.836Z,97493.46
2018-06-24T04:09:14.059Z,97492.20
2018-06-24T04:11:43.344Z,97495.34
2018-06-24T04:14:12.655Z,97487.45
2018-06-24T04:16:42.123Z,97484.38
2018-06-24T04:19:12.040Z,97487.35
2018-06-24T04:21:41.766Z,97482.67
2018-06-24T04:24:10.983Z,97476.53
2018-06-24T04:26:40.158Z,97477.95
2018-06-24T04:29:09.405Z,97474.38
2018-06-24T04:31:38.612Z,97488.20
2018-06-24T04:34:07.846Z,97488.57
2018-06-24T04:36:37.027Z,97488.78
2018-06-24T04:39:08.784Z,97490.82
2018-06-24T04:41:39.011Z,97496.13
2018-06-24T04:44:08.255Z,97495.64
2018-06-24T04:46:37.457Z,97505.01
2018-06-24T04:49:06.719Z,97507.58
2018-06-24T04:51:35.924Z,97526.98
2018-06-24T04:54:05.310Z,97514.41
2018-06-24T04:56:34.575Z,97513.18
2018-06-24T04:59:03.775Z,97496.56
2018-06-24T05:01:32.978Z,97507.89
2018-06-24T05:04:02.203Z,97500.84
2018-06-24T05:06:31.394Z,97506.70
2018-06-24T05:09:01.165Z,97513.08
2018-06-24T05:11:30.684Z,97509.45
2018-06-24T05:14:00.495Z,97504.09
2018-06-24T05:16:29.727Z,97503.30
2018-06-24T05:18:59.290Z,97501.30
2018-06-24T05:21:28.530Z,97503.53
2018-06-24T05:23:57.738Z,97494.23
2018-06-24T05:26:27.069Z,97502.64
2018-06-24T05:28:56.251Z,97506.68
2018-06-24T05:31:25.723Z,97503.73
2018-06-24T05:33:54.866Z,97503.23
2018-06-24T05:36:24.067Z,97500.82
2018-06-24T05:38:53.247Z,97502.74
2018-06-24T05:41:22.456Z,97501.39
2018-06-24T05:43:51.876Z,97498.13
2018-06-24T05:46:21.119Z,97500.31
2018-06-24T05:48:50.397Z,97500.83
2018-06-24T05:51:19.743Z,97498.13
2018-06-24T05:53:49.202Z,97495.44
2018-06-24T05:56:19.048Z,97492.98
2018-06-24T05:58:48.214Z,97479.95
2018-06-24T06:01:17.478Z,97474.60
2018-06-24T06:03:46.741Z,97473.70
2018-06-24T06:06:16.007Z,97477.59
2018-06-24T06:08:45.194Z,97475.55
2018-06-24T06:11:14.407Z,97481.53
2018-06-24T06:13:43.724Z,97487.18
2018-06-24T06:16:12.915Z,97486.34
2018-06-24T06:18:42.211Z,97488.17
2018-06-24T06:21:11.427Z,97489.48
2018-06-24T06:23:40.935Z,97498.84
2018-06-24T06:26:10.389Z,97500.92
2018-06-24T06:28:39.738Z,97488.08
2018-06-24T06:31:09.430Z,97492.10
2018-06-24T06:33:38.644Z,97494.81
2018-06-24T06:36:08.238Z,97503.01
2018-06-24T06:38:37.428Z,97500.22
2018-06-24T06:41:06.739Z,97500.41
2018-06-24T06:43:36.086Z,97501.58
2018-06-24T06:46:09.382Z,97502.88
2018-06-24T06:48:38.711Z,97509.13
2018-06-24T06:51:08.967Z,97512.58
2018-06-24T06:53:38.159Z,97514.30
2018-06-24T06:56:07.859Z,97513.63
2018-06-24T06:58:37.670Z,97511.68
2018-06-24T07:01:06.883Z,97509.02
2018-06-24T07:03:36.412Z,97507.90
2018-06-24T07:06:05.630Z,97509.64
2018-06-24T07:08:34.920Z,97508.78
2018-06-24T07:11:04.279Z,97513.05
2018-06-24T07:13:33.731Z,97512.78
2018-06-24T07:16:03.384Z,97514.17
2018-06-24T07:18:32.814Z,97521.22
2018-06-24T07:21:02.012Z,97516.91
2018-06-24T07:23:31.218Z,97515.47
2018-06-24T07:26:00.746Z,97511.32
2018-06-24T07:28:30.008Z,97515.73
2018-06-24T07:30:59.471Z,97510.25
2018-06-24T07:33:28.699Z,97519.25
2018-06-24T07:35:57.844Z,97524.98
2018-06-24T07:38:27.101Z,97523.37
2018-06-24T07:40:56.272Z,97529.48
2018-06-24T07:43:25.469Z,97522.23
2018-06-24T07:45:54.643Z,97523.59
2018-06-24T07:48:23.840Z,97530.12
2018-06-24T07:50:53.088Z,97525.90
2018-06-24T07:53:22.312Z,97528.22
2018-06-24T07:55:51.530Z,97528.52
2018-06-24T07:58:20.735Z,97519.05
2018-06-24T08:00:50.675Z,97521.46
2018-06-24T08:03:19.858Z,97523.95
2018-06-24T08:05:49.321Z,97519.01
2018-06-24T08:08:18.903Z,97512.91
2018-06-24T08:10:48.130Z,97503.14
2018-06-24T08:13:17.327Z,97513.47
2018-06-24T08:15:46.939Z,97519.89
2018-06-24T08:18:16.730Z,97516.77
2018-06-24T08:20:46.398Z,97520.74
2018-06-24T08:23:15.839Z,97508.45
2018-06-24T08:25:45.103Z,97507.86
2018-06-24T08:28:14.295Z,97499.70
2018-06-24T08:30:44.059Z,97494.94
2018-06-24T08:33:13.904Z,97495.05
2018-06-24T08:35:43.119Z,97496.60
2018-06-24T08:38:12.384Z,97489.79
2018-06-24T08:40:41.574Z,97489.25
2018-06-24T08:43:10.811Z,97489.56
2018-06-24T08:45:40.091Z,97502.69
2018-06-24T08:48:09.262Z,97496.42
2018-06-24T08:50:39.412Z,97499.59
2018-06-24T08:53:08.630Z,97499.53
2018-06-24T08:55:37.888Z,97498.34
2018-06-24T08:58:07.104Z,97500.77
2018-06-24T09:00:36.481Z,97504.00
2018-06-24T09:03:05.723Z,97511.28
2018-06-24T09:05:34.963Z,97512.62
2018-06-24T09:08:04.464Z,97509.90
2018-06-24T09:10:33.676Z,97506.20
2018-06-24T09:13:02.866Z,97504.17
2018-06-24T09:15:32.144Z,97503.95
2018-06-24T09:18:01.692Z,97495.06
2018-06-24T09:20:31.022Z,97489.07
2018-06-24T09:23:00.527Z,97481.97
2018-06-24T09:25:30.451Z,97488.64
2018-06-24T09:28:00.044Z,97491.45
2018-06-24T09:30:29.550Z,97497.78
2018-06-24T09:32:58.744Z,97505.42
2018-06-24T09:35:27.914Z,97506.00
2018-06-24T09:37:57.136Z,97499.67
2018-06-24T09:40:26.571Z,97496.55
2018-06-24T09:42:56.527Z,97502.45
2018-06-24T09:45:26.319Z,97504.00
2018-06-24T09:47:56.183Z,97499.19
2018-06-24T09:50:25.366Z,97498.63
2018-06-24T09:52:54.674Z,97496.97
2018-06-24T09:55:23.834Z,97506.92
2018-06-24T09:57:53.375Z,97501.58
2018-06-24T10:00:23.782Z,97497.41
2018-06-24T10:02:54.113Z,97494.92
2018-06-24T10:05:23.711Z,97500.14
2018-06-24T10:07:53.269Z,97503.06
2018-06-24T10:10:22.679Z,97500.78
2018-06-24T10:12:52.171Z,97507.99
2018-06-24T10:15:21.351Z,97514.83
2018-06-24T10:17:50.724Z,97505.36
2018-06-24T10:20:19.883Z,97500.39
2018-06-24T10:22:49.227Z,97497.12
2018-06-24T10:25:18.419Z,97491.98
2018-06-24T10:27:47.630Z,97489.80
2018-06-24T10:30:17.671Z,97488.31
2018-06-24T10:32:47.223Z,97487.97
2018-06-24T10:35:16.502Z,97486.61
2018-06-24T10:37:45.707Z,97483.31
2018-06-24T10:40:15.203Z,97481.39
2018-06-24T10:42:44.784Z,97482.77
2018-06-24T10:45:14.010Z,97482.66
2018-06-24T10:47:43.207Z,97484.28
2018-06-24T10:50:12.659Z,97490.84
2018-06-24T10:52:41.935Z,97487.11
2018-06-24T10:55:11.411Z,97489.72
2018-06-24T10:57:40.639Z,97491.16
2018-06-24T11:00:09.870Z,97486.30
2018-06-24T11:02:39.055Z,97486.12
2018-06-24T11:05:08.295Z,97484.30
2018-06-24T11:07:37.758Z,97493.02
2018-06-24T11:10:07.005Z,97486.13
2018-06-24T11:12:36.287Z,97481.98
2018-06-24T11:15:05.563Z,97485.66
2018-06-24T11:17:34.750Z,97482.77
2018-06-24T11:20:04.015Z,97481.62
2018-06-24T11:22:33.213Z,97480.41
2018-06-24T11:25:02.911Z,97469.36
2018-06-24T11:27:32.403Z,97467.34
2018-06-24T11:30:02.056Z,97462.08
2018-06-24T11:32:31.258Z,97463.91
2018-06-24T11:35:00.466Z,97464.17
2018-06-24T11:37:29.838Z,97464.44
2018-06-24T11:39:59.071Z,97460.25
2018-06-24T11:42:28.291Z,97462.69
2018-06-24T11:44:57.499Z,97461.87
2018-06-24T11:47:27.244Z,97469.09
2018-06-24T11:49:56.439Z,97460.08
2018-06-24T11:52:25.619Z,97461.81
2018-06-24T11:54:54.790Z,97461.19
2018-06-24T11:57:24.303Z,97455.30
2018-06-24T11:59:53.819Z,97453.28
2018-06-24T12:02:24.199Z,97459.09
2018-06-24T12:04:53.962Z,97447.27
2018-06-24T12:07:23.178Z,97462.18
2018-06-24T12:09:52.376Z,97458.94
2018-06-24T12:12:21.811Z,97455.30
2018-06-24T12:14:50.994Z,97451.30
2018-06-24T12:17:20.388Z,97449.24
2018-06-24T12:19:49.783Z,97450.58
2018-06-24T12:22:18.986Z,97456.66
2018-06-24T12:24:48.806Z,97460.29
2018-06-24T12:27:18.009Z,97460.69
2018-06-24T12:29:47.187Z,97451.79
2018-06-24T12:32:16.393Z,97444.08
2018-06-24T12:34:45.564Z,97446.80
2018-06-24T12:37:14.827Z,97444.72
2018-06-24T12:39:44.007Z,97443.92
2018-06-24T12:42:13.551Z,97434.30
2018-06-24T12:44:42.759Z,97434.22
2018-06-24T12:47:12.351Z,97426.84
2018-06-24T12:49:41.811Z,97422.23
2018-06-24T12:52:11.035Z,97428.25
2018-06-24T12:54:40.247Z,97426.07
2018-06-24T12:57:09.925Z,97429.53
2018-06-24T12:59:39.359Z,97428.19
2018-06-24T13:06:59.515Z,97427.28
2018-06-24T13:09:29.082Z,97429.12
2018-06-24T13:11:58.427Z,97434.05
2018-06-24T13:14:27.976Z,97427.52
2018-06-24T13:16:57.165Z,97421.72
2018-06-24T13:19:26.607Z,97423.48
2018-06-24T13:21:56.020Z,97425.47
2018-06-24T13:24:25.271Z,97419.81
2018-06-24T13:26:54.663Z,97423.78
2018-06-24T13:29:23.871Z,97435.75
2018-06-24T13:31:54.047Z,97430.49
2018-06-24T13:34:23.298Z,97434.79
2018-06-24T13:36:53.086Z,97427.36
2018-06-24T13:39:22.286Z,97426.05
2018-06-24T13:41:52.206Z,97419.18
2018-06-24T13:44:21.435Z,97412.06
2018-06-24T13:46:50.748Z,97410.96
2018-06-24T13:49:19.962Z,97411.45
2018-06-24T13:51:49.246Z,97420.07
2018-06-24T13:54:18.785Z,97407.06
2018-06-24T13:56:48.071Z,97411.58
2018-06-24T13:59:17.876Z,97411.83
2018-06-24T14:01:47.048Z,97405.26
2018-06-24T14:04:16.330Z,97398.84
2018-06-24T14:06:45.543Z,97412.47
2018-06-24T14:09:15.119Z,97416.23
2018-06-24T14:11:44.322Z,97416.73
2018-06-24T14:14:13.809Z,97402.34
2018-06-24T14:16:43.015Z,97401.95
2018-06-24T14:19:12.227Z,97399.79
2018-06-24T14:21:41.439Z,97397.30
2018-06-24T14:24:10.651Z,97405.28
2018-06-24T14:26:40.187Z,97408.59
2018-06-24T14:29:09.401Z,97410.40
2018-06-24T14:31:38.607Z,97411.39
2018-06-24T14:34:07.828Z,97413.65
2018-06-24T14:36:37.013Z,97411.76
2018-06-24T14:39:08.363Z,97408.36
2018-06-24T14:41:37.863Z,97396.95
2018-06-24T14:44:07.386Z,97409.23
2018-06-24T14:46:36.639Z,97413.03
2018-06-24T14:49:05.848Z,97415.67
2018-06-24T14:51:35.059Z,97419.13
2018-06-24T14:54:04.263Z,97403.67
2018-06-24T14:56:33.878Z,97410.69
2018-06-24T14:59:03.075Z,97410.94
2018-06-24T15:01:32.369Z,97404.00
2018-06-24T15:04:01.578Z,97406.98
2018-06-24T15:06:30.774Z,97410.23
2018-06-24T15:09:00.317Z,97418.00
2018-06-24T15:11:29.515Z,97414.92
2018-06-24T15:13:58.687Z,97403.27
2018-06-24T15:16:28.742Z,97412.31
2018-06-24T15:18:58.419Z,97409.17
2018-06-24T15:21:27.632Z,97413.30
2018-06-24T15:23:56.818Z,97416.12
2018-06-24T15:26:26.003Z,97408.01
2018-06-24T15:28:55.162Z,97404.30
2018-06-24T15:31:25.347Z,97406.66
2018-06-24T15:33:54.591Z,97401.66
2018-06-24T15:36:23.795Z,97397.41
2018-06-24T15:38:52.966Z,97406.89
2018-06-24T15:41:22.467Z,97404.64
2018-06-24T15:43:51.686Z,97406.27
2018-06-24T15:46:20.911Z,97403.67
2018-06-24T15:48:50.071Z,97402.86
2018-06-24T15:51:19.990Z,97405.96
2018-06-24T15:53:49.423Z,97408.61
2018-06-24T15:56:18.651Z,97405.03
2018-06-24T15:58:48.250Z,97409.20
2018-06-24T16:01:18.251Z,97401.81
2018-06-24T16:03:47.433Z,97402.18
2018-06-24T16:06:16.607Z,97405.29
2018-06-24T16:08:45.975Z,97396.98
2018-06-24T16:11:15.170Z,97398.77
2018-06-24T16:13:44.838Z,97400.17
2018-06-24T16:16:14.362Z,97401.58
2018-06-24T16:18:43.802Z,97399.71
2018-06-24T16:21:13.147Z,97399.45
2018-06-24T16:23:43.015Z,97394.98
2018-06-24T16:26:12.751Z,97399.45
2018-06-24T16:28:42.240Z,97400.61
2018-06-24T16:31:11.798Z,97399.16
2018-06-24T16:33:41.003Z,97400.81
2018-06-24T16:36:10.175Z,97401.12
2018-06-24T16:38:39.399Z,97398.27
2018-06-24T16:41:08.821Z,97399.94
2018-06-24T16:43:38.093Z,97394.09
2018-06-24T16:46:07.274Z,97396.54
2018-06-24T16:48:36.883Z,97395.82
2018-06-24T16:51:06.069Z,97391.44
2018-06-24T16:53:35.274Z,97398.86
2018-06-24T16:56:04.973Z,97398.53
2018-06-24T16:58:34.192Z,97391.48
2018-06-24T17:01:03.402Z,97390.48
2018-06-24T17:03:33.017Z,97397.36
2018-06-24T17:06:02.207Z,97387.55
2018-06-24T17:08:31.503Z,97390.52
2018-06-24T17:11:00.678Z,97385.33
2018-06-24T17:13:30.062Z,97388.75
2018-06-24T17:15:59.255Z,97398.94
2018-06-24T17:18:28.539Z,97403.17
2018-06-24T17:20:58.320Z,97411.85
2018-06-24T17:23:27.486Z,97414.17
2018-06-24T17:25:56.992Z,97415.30
2018-06-24T17:28:26.495Z,97415.58
2018-06-24T17:30:56.703Z,97417.09
2018-06-24T17:33:25.899Z,97425.56
2018-06-24T17:35:55.559Z,97416.08
2018-06-24T17:38:24.731Z,97423.87
2018-06-24T17:40:53.943Z,97420.18
2018-06-24T17:43:23.242Z,97426.43
2018-06-24T17:45:52.451Z,97425.26
2018-06-24T17:48:21.627Z,97416.60
2018-06-24T17:50:50.826Z,97416.33
2018-06-24T17:53:20.067Z,97411.03
2018-06-24T17:55:49.636Z,97408.69
2018-06-24T17:58:19.134Z,97416.70
2018-06-24T18:00:48.439Z,97411.75
2018-06-24T18:03:17.619Z,97410.02
2018-06-24T18:05:47.299Z,97411.82
2018-06-24T18:08:17.419Z,97408.80
2018-06-24T18:10:47.587Z,97411.45
2018-06-24T18:13:16.790Z,97408.09
2018-06-24T18:15:45.999Z,97406.10
2018-06-24T18:18:15.680Z,97400.53
2018-06-24T18:20:44.879Z,97404.35
2018-06-24T18:23:14.606Z,97396.57
2018-06-24T18:25:43.784Z,97396.04
2018-06-24T18:28:13.113Z,97395.31
2018-06-24T18:30:42.215Z,97395.52
2018-06-24T18:33:11.498Z,97391.06
2018-06-24T18:35:40.598Z,97399.09
2018-06-24T18:38:09.803Z,97397.13
2018-06-24T18:40:39.098Z,97392.78
2018-06-24T18:43:08.455Z,97400.21
2018-06-24T18:45:38.395Z,97397.23
2018-06-24T18:48:07.619Z,97403.59
2018-06-24T18:50:36.778Z,97401.08
2018-06-24T18:53:06.147Z,97399.24
2018-06-24T18:55:35.315Z,97404.11
2018-06-24T18:58:04.559Z,97402.61
2018-06-24T19:00:33.751Z,97400.54
2018-06-24T19:03:03.267Z,97408.31
2018-06-24T19:05:32.307Z,97407.55
2018-06-24T19:08:02.038Z,97412.52
2018-06-24T19:10:31.219Z,97417.95
2018-06-24T19:13:00.422Z,97411.81
2018-06-24T19:15:30.512Z,97413.75
2018-06-24T19:17:59.723Z,97415.97
2018-06-24T19:20:28.902Z,97417.66
2018-06-24T19:22:58.654Z,97416.56
2018-06-24T19:25:27.854Z,97426.13
2018-06-24T19:27:57.187Z,97420.48
2018-06-24T19:30:26.368Z,97421.98
2018-06-24T19:32:55.668Z,97414.98
2018-06-24T19:35:25.155Z,97421.45
2018-06-24T19:37:54.359Z,97421.72
2018-06-24T19:40:23.708Z,97426.41
2018-06-24T19:42:53.175Z,97433.26
2018-06-24T19:45:22.342Z,97426.45
2018-06-24T19:47:51.554Z,97431.28
2018-06-24T19:50:20.727Z,97433.49
2018-06-24T19:52:49.919Z,97441.08
2018-06-24T19:55:19.731Z,97435.97
2018-06-24T19:57:48.963Z,97434.30
2018-06-24T20:00:18.148Z,97446.30
2018-06-24T20:02:47.675Z,97451.23
2018-06-24T20:05:17.223Z,97449.34
2018-06-24T20:07:46.430Z,97446.94
2018-06-24T20:10:15.631Z,97442.63
2018-06-24T20:12:45.117Z,97441.58
2018-06-24T20:15:14.594Z,97447.30
2018-06-24T20:17:43.787Z,97442.16
2018-06-24T20:20:13.660Z,97441.55
2018-06-24T20:22:42.867Z,97445.64
2018-06-24T20:25:12.059Z,97445.67
2018-06-24T20:27:41.275Z,97450.03
2018-06-24T20:30:10.508Z,97438.39
2018-06-24T20:32:39.688Z,97442.21
2018-06-24T20:35:09.003Z,97441.31
2018-06-24T20:37:38.171Z,97444.08
2018-06-24T20:40:07.422Z,97443.50
2018-06-24T20:42:36.703Z,97445.10
2018-06-24T20:45:06.500Z,97447.57
2018-06-24T20:47:35.678Z,97453.30
2018-06-24T20:50:05.537Z,97462.02
2018-06-24T20:52:34.762Z,97466.63
2018-06-24T20:55:04.005Z,97469.08
2018-06-24T20:57:33.226Z,97465.51
2018-06-24T21:00:02.698Z,97469.63
2018-06-24T21:02:31.925Z,97480.19
2018-06-24T21:05:01.291Z,97484.25
2018-06-24T21:07:30.720Z,97489.43
2018-06-24T21:09:59.935Z,97488.87
2018-06-24T21:12:29.118Z,97485.09
2018-06-24T21:14:58.342Z,97494.57
2018-06-24T21:17:27.511Z,97496.16
2018-06-24T21:19:56.719Z,97486.44
2018-06-24T21:22:26.035Z,97491.86
2018-06-24T21:24:55.231Z,97496.71
2018-06-24T21:27:24.618Z,97494.55
2018-06-24T21:29:53.827Z,97489.12
2018-06-24T21:32:23.023Z,97493.19
2018-06-24T21:34:52.646Z,97486.68
2018-06-24T21:37:21.822Z,97487.55
2018-06-24T21:39:51.031Z,97481.32
2018-06-24T21:42:20.302Z,97480.82
2018-06-24T21:44:49.870Z,97495.95
2018-06-24T21:47:19.210Z,97489.47
2018-06-24T21:49:48.410Z,97495.43
2018-06-24T21:52:17.627Z,97485.44
2018-06-24T21:54:46.795Z,97492.22
2018-06-24T21:57:16.266Z,97489.20
2018-06-24T21:59:45.452Z,97473.53
2018-06-24T22:02:14.660Z,97477.34
2018-06-24T22:04:44.167Z,97478.13
2018-06-24T22:07:13.395Z,97473.27
2018-06-24T22:09:42.596Z,97477.05
2018-06-24T22:12:11.807Z,97478.14
2018-06-24T22:14:41.247Z,97479.78
2018-06-24T22:17:10.491Z,97475.99
2018-06-24T22:19:39.664Z,97478.67
2018-06-24T22:22:08.883Z,97483.28
2018-06-24T22:24:38.220Z,97479.75
2018-06-24T22:27:07.815Z,97475.70
2018-06-24T22:29:37.310Z,97481.11
2018-06-24T22:32:06.863Z,97484.91
2018-06-24T22:34:36.033Z,97480.84
2018-06-24T22:37:05.306Z,97480.33
2018-06-24T22:39:34.586Z,97471.94
2018-06-24T22:42:03.806Z,97479.48
2018-06-24T22:44:33.322Z,97475.16
2018-06-24T22:47:02.847Z,97477.34
2018-06-24T22:49:32.258Z,97478.98
2018-06-24T22:52:01.472Z,97481.92
2018-06-24T22:54:30.950Z,97471.92
2018-06-24T22:57:00.267Z,97469.22
2018-06-24T22:59:40.602Z,97473.83
2018-06-24T23:02:09.828Z,97470.31
2018-06-24T23:04:38.866Z,97471.66
2018-06-24T23:07:08.071Z,97477.61
2018-06-24T23:09:37.270Z,97477.61
2018-06-24T23:12:06.943Z,97470.86
2018-06-24T23:14:36.143Z,97473.81
2018-06-24T23:17:05.355Z,97468.41
2018-06-24T23:19:34.570Z,97469.78
2018-06-24T23:22:03.791Z,97468.41
2018-06-24T23:24:32.995Z,97473.30
2018-06-24T23:27:02.174Z,97468.97
2018-06-24T23:29:31.982Z,97466.80
2018-06-24T23:32:01.180Z,97465.71
2018-06-24T23:34:30.898Z,97470.58
2018-06-24T23:37:00.070Z,97475.72
2018-06-24T23:39:29.262Z,97467.61
2018-06-24T23:41:58.447Z,97468.69
2018-06-24T23:44:28.152Z,97474.11
2018-06-24T23:46:57.340Z,97467.89
2018-06-24T23:49:26.579Z,97466.00
2018-06-24T23:51:55.774Z,97465.73
2018-06-24T23:54:25.370Z,97470.31
2018-06-24T23:56:54.685Z,97460.84
2018-06-24T23:59:24.174Z,97468.70
